sensor_id;sensor_type;location;lat;lon;timestamp;temperature;humidity
13464;DHT22;6804;48.774;9.174;2022-09-09T00:00:11;18.50;99.90
13464;DHT22;6804;48.774;9.174;2022-09-09T00:02:42;18.40;99.90
13464;DHT22;6804;48.774;9.174;2022-09-09T00:05:19;18.40;99.90
13464;DHT22;6804;48.774;9.174;2022-09-09T00:07:54;18.40;99.90
13464;DHT22;6804;48.774;9.174;2022-09-09T00:10:28;18.40;99.90
13464;DHT22;6804;48.774;9.174;2022-09-09T00:13:05;18.30;99.90
13464;DHT22;6804;48.774;9.174;2022-09-09T00:15:40;18.30;99.90
13464;DHT22;6804;48.774;9.174;2022-09-09T00:18:16;18.30;99.90
13464;DHT22;6804;48.774;9.174;2022-09-09T00:20:49;18.30;99.90
13464;DHT22;6804;48.774;9.174;2022-09-09T00:23:24;18.30;99.90
13464;DHT22;6804;48.774;9.174;2022-09-09T00:25:59;18.20;99.90
13464;DHT22;6804;48.774;9.174;2022-09-09T00:28:32;18.20;99.90
13464;DHT22;6804;48.774;9.174;2022-09-09T00:31:11;18.20;99.90
13464;DHT22;6804;48.774;9.174;2022-09-09T00:33:42;18.20;99.90
13464;DHT22;6804;48.774;9.174;2022-09-09T00:36:13;18.20;99.90
13464;DHT22;6804;48.774;9.174;2022-09-09T00:38:48;18.20;99.90
13464;DHT22;6804;48.774;9.174;2022-09-09T00:41:24;18.20;99.90
13464;DHT22;6804;48.774;9.174;2022-09-09T00:43:57;18.20;99.90
13464;DHT22;6804;48.774;9.174;2022-09-09T00:46:42;18.20;99.90
13464;DHT22;6804;48.774;9.174;2022-09-09T00:49:20;18.20;99.90
13464;DHT22;6804;48.774;9.174;2022-09-09T00:51:59;18.20;99.90
13464;DHT22;6804;48.774;9.174;2022-09-09T00:54:40;18.20;99.90
13464;DHT22;6804;48.774;9.174;2022-09-09T00:57:25;18.20;99.90
13464;DHT22;6804;48.774;9.174;2022-09-09T01:02:46;18.20;99.90
13464;DHT22;6804;48.774;9.174;2022-09-09T01:05:22;18.10;99.90
13464;DHT22;6804;48.774;9.174;2022-09-09T01:07:54;18.20;99.90
13464;DHT22;6804;48.774;9.174;2022-09-09T01:10:29;18.10;99.90
13464;DHT22;6804;48.774;9.174;2022-09-09T01:13:14;18.10;99.90
13464;DHT22;6804;48.774;9.174;2022-09-09T01:15:44;18.10;99.90
13464;DHT22;6804;48.774;9.174;2022-09-09T01:18:16;18.10;99.90
13464;DHT22;6804;48.774;9.174;2022-09-09T01:20:49;18.10;99.90
13464;DHT22;6804;48.774;9.174;2022-09-09T01:23:49;18.20;99.90
13464;DHT22;6804;48.774;9.174;2022-09-09T01:26:28;18.20;99.90
13464;DHT22;6804;48.774;9.174;2022-09-09T01:28:57;18.10;99.90
13464;DHT22;6804;48.774;9.174;2022-09-09T01:31:28;18.10;99.90
13464;DHT22;6804;48.774;9.174;2022-09-09T01:33:56;18.10;99.90
13464;DHT22;6804;48.774;9.174;2022-09-09T01:36:29;18.10;99.90
13464;DHT22;6804;48.774;9.174;2022-09-09T01:39:01;18.10;99.90
13464;DHT22;6804;48.774;9.174;2022-09-09T01:41:33;18.10;99.90
13464;DHT22;6804;48.774;9.174;2022-09-09T01:44:05;18.10;99.90
13464;DHT22;6804;48.774;9.174;2022-09-09T01:46:33;18.10;99.90
13464;DHT22;6804;48.774;9.174;2022-09-09T01:49:02;18.10;99.90
13464;DHT22;6804;48.774;9.174;2022-09-09T01:51:33;18.10;99.90
13464;DHT22;6804;48.774;9.174;2022-09-09T01:54:02;18.10;99.90
13464;DHT22;6804;48.774;9.174;2022-09-09T01:56:39;18.10;99.90
13464;DHT22;6804;48.774;9.174;2022-09-09T01:59:21;18.10;99.90
13464;DHT22;6804;48.774;9.174;2022-09-09T02:02:01;18.10;99.90
13464;DHT22;6804;48.774;9.174;2022-09-09T02:04:38;18.20;99.90
13464;DHT22;6804;48.774;9.174;2022-09-09T02:07:19;18.20;99.90
13464;DHT22;6804;48.774;9.174;2022-09-09T02:09:53;18.30;99.90
13464;DHT22;6804;48.774;9.174;2022-09-09T02:12:29;18.20;99.90
13464;DHT22;6804;48.774;9.174;2022-09-09T02:15:07;18.20;99.90
13464;DHT22;6804;48.774;9.174;2022-09-09T02:17:41;18.20;99.90
13464;DHT22;6804;48.774;9.174;2022-09-09T02:20:12;18.10;99.90
13464;DHT22;6804;48.774;9.174;2022-09-09T02:22:43;18.00;99.90
13464;DHT22;6804;48.774;9.174;2022-09-09T02:25:13;18.00;99.90
13464;DHT22;6804;48.774;9.174;2022-09-09T02:27:47;18.00;99.90
13464;DHT22;6804;48.774;9.174;2022-09-09T02:30:16;18.00;99.90
13464;DHT22;6804;48.774;9.174;2022-09-09T02:32:48;18.00;99.90
13464;DHT22;6804;48.774;9.174;2022-09-09T02:35:19;18.00;99.90
13464;DHT22;6804;48.774;9.174;2022-09-09T02:37:53;18.10;99.90
13464;DHT22;6804;48.774;9.174;2022-09-09T02:40:20;18.10;99.90
13464;DHT22;6804;48.774;9.174;2022-09-09T02:42:49;18.10;99.90
13464;DHT22;6804;48.774;9.174;2022-09-09T02:45:18;18.00;99.90
13464;DHT22;6804;48.774;9.174;2022-09-09T02:47:51;18.10;99.90
13464;DHT22;6804;48.774;9.174;2022-09-09T02:50:26;18.00;99.90
13464;DHT22;6804;48.774;9.174;2022-09-09T02:53:07;18.10;99.90
13464;DHT22;6804;48.774;9.174;2022-09-09T02:55:49;18.00;99.90
13464;DHT22;6804;48.774;9.174;2022-09-09T02:58:29;18.10;99.90
13464;DHT22;6804;48.774;9.174;2022-09-09T03:00:56;18.10;99.90
13464;DHT22;6804;48.774;9.174;2022-09-09T03:03:25;18.00;99.90
13464;DHT22;6804;48.774;9.174;2022-09-09T03:05:53;18.00;99.90
13464;DHT22;6804;48.774;9.174;2022-09-09T03:08:20;18.00;99.90
13464;DHT22;6804;48.774;9.174;2022-09-09T03:10:47;18.00;99.90
13464;DHT22;6804;48.774;9.174;2022-09-09T03:13:21;18.00;99.90
13464;DHT22;6804;48.774;9.174;2022-09-09T03:15:49;18.00;99.90
13464;DHT22;6804;48.774;9.174;2022-09-09T03:18:17;17.90;99.90
13464;DHT22;6804;48.774;9.174;2022-09-09T03:20:46;17.90;99.90
13464;DHT22;6804;48.774;9.174;2022-09-09T03:23:14;17.90;99.90
13464;DHT22;6804;48.774;9.174;2022-09-09T03:25:47;17.80;99.90
13464;DHT22;6804;48.774;9.174;2022-09-09T03:28:15;17.80;99.90
13464;DHT22;6804;48.774;9.174;2022-09-09T03:30:42;17.70;99.90
13464;DHT22;6804;48.774;9.174;2022-09-09T03:33:14;17.70;99.90
13464;DHT22;6804;48.774;9.174;2022-09-09T03:35:46;17.70;99.90
13464;DHT22;6804;48.774;9.174;2022-09-09T03:38:14;17.70;99.90
13464;DHT22;6804;48.774;9.174;2022-09-09T03:40:50;17.70;99.90
13464;DHT22;6804;48.774;9.174;2022-09-09T03:43:19;17.60;99.90
13464;DHT22;6804;48.774;9.174;2022-09-09T03:45:47;17.60;99.90
13464;DHT22;6804;48.774;9.174;2022-09-09T03:48:19;17.60;99.90
13464;DHT22;6804;48.774;9.174;2022-09-09T03:50:50;17.60;99.90
13464;DHT22;6804;48.774;9.174;2022-09-09T03:53:19;17.60;99.90
13464;DHT22;6804;48.774;9.174;2022-09-09T03:55:51;17.60;99.90
13464;DHT22;6804;48.774;9.174;2022-09-09T03:58:21;17.50;99.90
13464;DHT22;6804;48.774;9.174;2022-09-09T04:00:54;17.50;99.90
13464;DHT22;6804;48.774;9.174;2022-09-09T04:03:23;17.50;99.90
13464;DHT22;6804;48.774;9.174;2022-09-09T04:06:00;17.60;99.90
13464;DHT22;6804;48.774;9.174;2022-09-09T04:08:28;17.50;99.90
13464;DHT22;6804;48.774;9.174;2022-09-09T04:11:00;17.50;99.90
13464;DHT22;6804;48.774;9.174;2022-09-09T04:13:31;17.50;99.90
13464;DHT22;6804;48.774;9.174;2022-09-09T04:15:59;17.50;99.90
13464;DHT22;6804;48.774;9.174;2022-09-09T04:18:31;17.40;99.90
13464;DHT22;6804;48.774;9.174;2022-09-09T04:20:58;17.40;99.90
13464;DHT22;6804;48.774;9.174;2022-09-09T04:23:26;17.40;99.90
13464;DHT22;6804;48.774;9.174;2022-09-09T04:25:55;17.40;99.90
13464;DHT22;6804;48.774;9.174;2022-09-09T04:28:26;17.40;99.90
13464;DHT22;6804;48.774;9.174;2022-09-09T04:30:53;17.40;99.90
13464;DHT22;6804;48.774;9.174;2022-09-09T04:33:24;17.40;99.90
13464;DHT22;6804;48.774;9.174;2022-09-09T04:35:54;17.40;99.90
13464;DHT22;6804;48.774;9.174;2022-09-09T04:38:31;17.40;99.90
13464;DHT22;6804;48.774;9.174;2022-09-09T04:41:01;17.40;99.90
13464;DHT22;6804;48.774;9.174;2022-09-09T04:43:28;17.40;99.90
13464;DHT22;6804;48.774;9.174;2022-09-09T04:45:56;17.30;99.90
13464;DHT22;6804;48.774;9.174;2022-09-09T04:48:25;17.30;99.90
13464;DHT22;6804;48.774;9.174;2022-09-09T04:50:57;17.30;99.90
13464;DHT22;6804;48.774;9.174;2022-09-09T04:53:25;17.30;99.90
13464;DHT22;6804;48.774;9.174;2022-09-09T04:56:03;17.30;99.90
13464;DHT22;6804;48.774;9.174;2022-09-09T04:58:30;17.30;99.90
13464;DHT22;6804;48.774;9.174;2022-09-09T05:01:04;17.20;99.90
13464;DHT22;6804;48.774;9.174;2022-09-09T05:03:31;17.20;99.90
13464;DHT22;6804;48.774;9.174;2022-09-09T05:06:11;17.20;99.90
13464;DHT22;6804;48.774;9.174;2022-09-09T05:08:42;17.20;99.90
13464;DHT22;6804;48.774;9.174;2022-09-09T05:11:14;17.10;99.90
13464;DHT22;6804;48.774;9.174;2022-09-09T05:13:42;17.10;99.90
13464;DHT22;6804;48.774;9.174;2022-09-09T05:16:13;17.10;99.90
13464;DHT22;6804;48.774;9.174;2022-09-09T05:18:41;17.10;99.90
13464;DHT22;6804;48.774;9.174;2022-09-09T05:21:11;17.10;99.90
13464;DHT22;6804;48.774;9.174;2022-09-09T05:23:41;17.10;99.90
13464;DHT22;6804;48.774;9.174;2022-09-09T05:26:12;17.10;99.90
13464;DHT22;6804;48.774;9.174;2022-09-09T05:28:40;17.10;99.90
13464;DHT22;6804;48.774;9.174;2022-09-09T05:31:09;17.20;99.90
13464;DHT22;6804;48.774;9.174;2022-09-09T05:33:40;17.20;99.90
13464;DHT22;6804;48.774;9.174;2022-09-09T05:36:11;17.30;99.90
13464;DHT22;6804;48.774;9.174;2022-09-09T05:38:42;17.40;99.90
13464;DHT22;6804;48.774;9.174;2022-09-09T05:41:11;17.50;99.90
13464;DHT22;6804;48.774;9.174;2022-09-09T05:43:41;17.50;99.90
13464;DHT22;6804;48.774;9.174;2022-09-09T05:46:12;17.50;99.90
13464;DHT22;6804;48.774;9.174;2022-09-09T05:48:41;17.50;99.90
13464;DHT22;6804;48.774;9.174;2022-09-09T05:51:14;17.60;99.90
13464;DHT22;6804;48.774;9.174;2022-09-09T05:53:43;17.60;99.90
13464;DHT22;6804;48.774;9.174;2022-09-09T05:56:12;17.60;99.90
13464;DHT22;6804;48.774;9.174;2022-09-09T05:58:43;17.50;99.90
13464;DHT22;6804;48.774;9.174;2022-09-09T06:01:14;17.60;99.90
13464;DHT22;6804;48.774;9.174;2022-09-09T06:03:43;17.60;99.90
13464;DHT22;6804;48.774;9.174;2022-09-09T06:06:16;17.70;99.90
13464;DHT22;6804;48.774;9.174;2022-09-09T06:08:52;17.70;99.90
13464;DHT22;6804;48.774;9.174;2022-09-09T06:11:24;17.70;99.90
13464;DHT22;6804;48.774;9.174;2022-09-09T06:13:52;17.70;99.90
13464;DHT22;6804;48.774;9.174;2022-09-09T06:16:24;17.70;99.90
13464;DHT22;6804;48.774;9.174;2022-09-09T06:18:52;17.70;99.90
13464;DHT22;6804;48.774;9.174;2022-09-09T06:21:26;17.80;99.90
13464;DHT22;6804;48.774;9.174;2022-09-09T06:23:56;17.80;99.90
13464;DHT22;6804;48.774;9.174;2022-09-09T06:26:24;17.80;99.90
13464;DHT22;6804;48.774;9.174;2022-09-09T06:28:55;17.80;99.90
13464;DHT22;6804;48.774;9.174;2022-09-09T06:31:25;17.80;99.90
13464;DHT22;6804;48.774;9.174;2022-09-09T06:33:54;17.90;99.90
13464;DHT22;6804;48.774;9.174;2022-09-09T06:36:27;17.90;99.90
13464;DHT22;6804;48.774;9.174;2022-09-09T06:38:55;17.90;99.90
13464;DHT22;6804;48.774;9.174;2022-09-09T06:41:26;18.00;99.90
13464;DHT22;6804;48.774;9.174;2022-09-09T06:43:53;18.00;99.90
13464;DHT22;6804;48.774;9.174;2022-09-09T06:46:25;18.00;99.90
13464;DHT22;6804;48.774;9.174;2022-09-09T06:48:54;18.10;99.90
13464;DHT22;6804;48.774;9.174;2022-09-09T06:51:27;18.10;99.90
13464;DHT22;6804;48.774;9.174;2022-09-09T06:53:56;18.20;99.90
13464;DHT22;6804;48.774;9.174;2022-09-09T06:56:25;18.20;99.90
13464;DHT22;6804;48.774;9.174;2022-09-09T06:58:54;18.20;99.90
13464;DHT22;6804;48.774;9.174;2022-09-09T07:01:24;18.30;99.90
13464;DHT22;6804;48.774;9.174;2022-09-09T07:03:54;18.30;99.90
13464;DHT22;6804;48.774;9.174;2022-09-09T07:06:30;18.40;99.90
13464;DHT22;6804;48.774;9.174;2022-09-09T07:09:06;18.40;99.90
13464;DHT22;6804;48.774;9.174;2022-09-09T07:11:39;18.50;99.90
13464;DHT22;6804;48.774;9.174;2022-09-09T07:14:07;18.50;99.90
13464;DHT22;6804;48.774;9.174;2022-09-09T07:16:37;18.60;99.90
13464;DHT22;6804;48.774;9.174;2022-09-09T07:19:16;18.60;99.90
13464;DHT22;6804;48.774;9.174;2022-09-09T07:21:48;18.60;99.90
13464;DHT22;6804;48.774;9.174;2022-09-09T07:24:24;18.70;99.90
13464;DHT22;6804;48.774;9.174;2022-09-09T07:26:56;18.70;99.90
13464;DHT22;6804;48.774;9.174;2022-09-09T07:29:23;18.80;99.90
13464;DHT22;6804;48.774;9.174;2022-09-09T07:31:57;18.90;99.90
13464;DHT22;6804;48.774;9.174;2022-09-09T07:34:24;19.00;99.90
13464;DHT22;6804;48.774;9.174;2022-09-09T07:36:55;19.30;99.90
13464;DHT22;6804;48.774;9.174;2022-09-09T07:39:26;19.40;99.90
13464;DHT22;6804;48.774;9.174;2022-09-09T07:41:56;19.60;99.90
13464;DHT22;6804;48.774;9.174;2022-09-09T07:44:26;19.80;99.90
13464;DHT22;6804;48.774;9.174;2022-09-09T07:46:57;20.00;99.90
13464;DHT22;6804;48.774;9.174;2022-09-09T07:49:24;20.30;99.90
13464;DHT22;6804;48.774;9.174;2022-09-09T07:51:56;20.50;99.90
13464;DHT22;6804;48.774;9.174;2022-09-09T07:54:23;20.70;99.90
13464;DHT22;6804;48.774;9.174;2022-09-09T07:56:54;20.80;99.90
13464;DHT22;6804;48.774;9.174;2022-09-09T07:59:22;20.80;99.90
13464;DHT22;6804;48.774;9.174;2022-09-09T08:01:50;20.80;99.90
13464;DHT22;6804;48.774;9.174;2022-09-09T08:04:26;21.00;99.90
13464;DHT22;6804;48.774;9.174;2022-09-09T08:06:59;21.30;99.90
13464;DHT22;6804;48.774;9.174;2022-09-09T08:09:29;21.60;99.90
13464;DHT22;6804;48.774;9.174;2022-09-09T08:11:58;21.90;99.90
13464;DHT22;6804;48.774;9.174;2022-09-09T08:14:25;22.20;99.90
13464;DHT22;6804;48.774;9.174;2022-09-09T08:16:53;22.40;99.90
13464;DHT22;6804;48.774;9.174;2022-09-09T08:19:25;22.60;99.90
13464;DHT22;6804;48.774;9.174;2022-09-09T08:21:55;22.70;99.90
13464;DHT22;6804;48.774;9.174;2022-09-09T08:24:24;22.90;99.90
13464;DHT22;6804;48.774;9.174;2022-09-09T08:26:51;23.10;99.90
13464;DHT22;6804;48.774;9.174;2022-09-09T08:29:25;23.20;99.90
13464;DHT22;6804;48.774;9.174;2022-09-09T08:31:55;23.50;99.90
13464;DHT22;6804;48.774;9.174;2022-09-09T08:34:24;23.50;99.90
13464;DHT22;6804;48.774;9.174;2022-09-09T08:36:57;23.80;99.90
13464;DHT22;6804;48.774;9.174;2022-09-09T08:39:28;24.00;99.90
13464;DHT22;6804;48.774;9.174;2022-09-09T08:45:13;24.00;99.90
13464;DHT22;6804;48.774;9.174;2022-09-09T08:47:52;23.80;99.90
13464;DHT22;6804;48.774;9.174;2022-09-09T08:50:26;23.50;99.90
13464;DHT22;6804;48.774;9.174;2022-09-09T08:53:01;23.40;99.90
13464;DHT22;6804;48.774;9.174;2022-09-09T08:55:38;23.50;99.90
13464;DHT22;6804;48.774;9.174;2022-09-09T08:58:12;23.60;99.90
13464;DHT22;6804;48.774;9.174;2022-09-09T09:00:52;23.70;99.90
13464;DHT22;6804;48.774;9.174;2022-09-09T09:03:32;23.70;99.90
13464;DHT22;6804;48.774;9.174;2022-09-09T09:06:10;23.90;99.80
13464;DHT22;6804;48.774;9.174;2022-09-09T09:08:54;24.10;99.70
13464;DHT22;6804;48.774;9.174;2022-09-09T09:11:33;24.10;98.80
13464;DHT22;6804;48.774;9.174;2022-09-09T09:14:09;24.00;98.70
13464;DHT22;6804;48.774;9.174;2022-09-09T09:16:42;23.70;98.50
13464;DHT22;6804;48.774;9.174;2022-09-09T09:19:19;23.50;98.60
13464;DHT22;6804;48.774;9.174;2022-09-09T09:21:52;23.30;98.90
13464;DHT22;6804;48.774;9.174;2022-09-09T09:24:30;23.10;99.20
13464;DHT22;6804;48.774;9.174;2022-09-09T09:27:10;22.90;99.60
13464;DHT22;6804;48.774;9.174;2022-09-09T09:29:39;22.70;99.90
13464;DHT22;6804;48.774;9.174;2022-09-09T09:32:10;22.50;99.90
13464;DHT22;6804;48.774;9.174;2022-09-09T09:34:41;22.20;99.90
13464;DHT22;6804;48.774;9.174;2022-09-09T09:37:25;21.90;99.90
13464;DHT22;6804;48.774;9.174;2022-09-09T09:40:09;21.60;99.90
13464;DHT22;6804;48.774;9.174;2022-09-09T09:42:48;21.40;99.90
13464;DHT22;6804;48.774;9.174;2022-09-09T09:45:32;21.40;99.90
13464;DHT22;6804;48.774;9.174;2022-09-09T09:48:03;21.80;99.90
13464;DHT22;6804;48.774;9.174;2022-09-09T09:50:33;22.10;99.90
13464;DHT22;6804;48.774;9.174;2022-09-09T09:53:05;22.40;99.90
13464;DHT22;6804;48.774;9.174;2022-09-09T09:55:44;22.70;99.90
13464;DHT22;6804;48.774;9.174;2022-09-09T09:58:19;23.00;99.90
13464;DHT22;6804;48.774;9.174;2022-09-09T10:00:51;23.10;99.90
13464;DHT22;6804;48.774;9.174;2022-09-09T10:03:23;23.40;99.90
13464;DHT22;6804;48.774;9.174;2022-09-09T10:05:54;23.50;99.10
13464;DHT22;6804;48.774;9.174;2022-09-09T10:08:32;23.60;98.90
13464;DHT22;6804;48.774;9.174;2022-09-09T10:11:18;23.70;98.40
13464;DHT22;6804;48.774;9.174;2022-09-09T10:13:57;23.90;98.80
13464;DHT22;6804;48.774;9.174;2022-09-09T10:16:38;24.00;98.90
13464;DHT22;6804;48.774;9.174;2022-09-09T10:19:15;24.20;99.40
13464;DHT22;6804;48.774;9.174;2022-09-09T10:24:59;24.60;99.20
13464;DHT22;6804;48.774;9.174;2022-09-09T10:27:38;24.70;98.40
13464;DHT22;6804;48.774;9.174;2022-09-09T10:30:22;24.90;98.30
13464;DHT22;6804;48.774;9.174;2022-09-09T10:32:56;24.90;97.90
13464;DHT22;6804;48.774;9.174;2022-09-09T10:35:30;25.00;97.80
13464;DHT22;6804;48.774;9.174;2022-09-09T10:38:12;25.00;98.10
13464;DHT22;6804;48.774;9.174;2022-09-09T10:41:01;24.90;97.70
13464;DHT22;6804;48.774;9.174;2022-09-09T10:43:46;25.00;97.60
13464;DHT22;6804;48.774;9.174;2022-09-09T10:46:23;25.00;97.80
13464;DHT22;6804;48.774;9.174;2022-09-09T10:49:07;25.00;98.30
13464;DHT22;6804;48.774;9.174;2022-09-09T10:51:40;25.00;98.30
13464;DHT22;6804;48.774;9.174;2022-09-09T10:54:25;24.90;98.30
13464;DHT22;6804;48.774;9.174;2022-09-09T10:57:02;24.70;98.70
13464;DHT22;6804;48.774;9.174;2022-09-09T10:59:34;24.70;99.00
13464;DHT22;6804;48.774;9.174;2022-09-09T11:02:13;24.60;99.40
13464;DHT22;6804;48.774;9.174;2022-09-09T11:04:57;24.70;99.50
13464;DHT22;6804;48.774;9.174;2022-09-09T11:07:31;25.00;99.00
13464;DHT22;6804;48.774;9.174;2022-09-09T11:10:04;25.10;98.50
13464;DHT22;6804;48.774;9.174;2022-09-09T11:12:37;25.20;97.30
13464;DHT22;6804;48.774;9.174;2022-09-09T11:15:16;25.00;97.40
13464;DHT22;6804;48.774;9.174;2022-09-09T11:17:58;24.90;97.90
13464;DHT22;6804;48.774;9.174;2022-09-09T11:20:28;24.80;97.80
13464;DHT22;6804;48.774;9.174;2022-09-09T11:23:05;24.50;95.20
13464;DHT22;6804;48.774;9.174;2022-09-09T11:25:43;24.10;94.90
13464;DHT22;6804;48.774;9.174;2022-09-09T11:28:39;23.80;95.00
13464;DHT22;6804;48.774;9.174;2022-09-09T11:31:33;23.40;94.10
13464;DHT22;6804;48.774;9.174;2022-09-09T11:34:22;23.00;94.30
13464;DHT22;6804;48.774;9.174;2022-09-09T11:37:09;22.80;94.90
13464;DHT22;6804;48.774;9.174;2022-09-09T11:40:00;22.60;95.90
13464;DHT22;6804;48.774;9.174;2022-09-09T11:42:31;22.40;96.80
13464;DHT22;6804;48.774;9.174;2022-09-09T11:45:19;22.30;97.00
13464;DHT22;6804;48.774;9.174;2022-09-09T11:47:53;22.40;97.20
13464;DHT22;6804;48.774;9.174;2022-09-09T11:50:40;22.30;96.80
13464;DHT22;6804;48.774;9.174;2022-09-09T11:53:21;22.20;96.80
13464;DHT22;6804;48.774;9.174;2022-09-09T11:56:05;22.10;97.30
13464;DHT22;6804;48.774;9.174;2022-09-09T11:58:38;21.90;97.70
13464;DHT22;6804;48.774;9.174;2022-09-09T12:01:26;21.90;97.90
13464;DHT22;6804;48.774;9.174;2022-09-09T12:04:12;21.90;98.20
13464;DHT22;6804;48.774;9.174;2022-09-09T12:06:46;22.00;97.60
13464;DHT22;6804;48.774;9.174;2022-09-09T12:09:21;22.20;97.00
13464;DHT22;6804;48.774;9.174;2022-09-09T12:12:05;22.50;96.60
13464;DHT22;6804;48.774;9.174;2022-09-09T12:14:38;22.70;96.20
13464;DHT22;6804;48.774;9.174;2022-09-09T12:17:19;22.80;96.30
13464;DHT22;6804;48.774;9.174;2022-09-09T12:19:48;22.80;96.10
13464;DHT22;6804;48.774;9.174;2022-09-09T12:22:29;22.90;95.90
13464;DHT22;6804;48.774;9.174;2022-09-09T12:25:05;23.10;95.90
13464;DHT22;6804;48.774;9.174;2022-09-09T12:27:45;23.30;95.50
13464;DHT22;6804;48.774;9.174;2022-09-09T12:30:24;23.30;94.80
13464;DHT22;6804;48.774;9.174;2022-09-09T12:33:12;23.50;94.90
13464;DHT22;6804;48.774;9.174;2022-09-09T12:35:45;23.70;94.10
13464;DHT22;6804;48.774;9.174;2022-09-09T12:38:21;23.90;93.30
13464;DHT22;6804;48.774;9.174;2022-09-09T12:40:54;24.10;93.10
13464;DHT22;6804;48.774;9.174;2022-09-09T12:43:24;24.20;92.40
13464;DHT22;6804;48.774;9.174;2022-09-09T12:45:54;24.40;92.00
13464;DHT22;6804;48.774;9.174;2022-09-09T12:48:33;24.30;91.80
13464;DHT22;6804;48.774;9.174;2022-09-09T12:51:16;24.10;91.90
13464;DHT22;6804;48.774;9.174;2022-09-09T12:53:48;23.80;92.30
13464;DHT22;6804;48.774;9.174;2022-09-09T12:56:21;23.70;92.70
13464;DHT22;6804;48.774;9.174;2022-09-09T12:58:56;23.50;93.10
13464;DHT22;6804;48.774;9.174;2022-09-09T13:01:25;23.40;93.70
13464;DHT22;6804;48.774;9.174;2022-09-09T13:03:55;23.50;94.00
13464;DHT22;6804;48.774;9.174;2022-09-09T13:06:24;23.80;94.10
13464;DHT22;6804;48.774;9.174;2022-09-09T13:08:57;23.90;93.40
13464;DHT22;6804;48.774;9.174;2022-09-09T13:11:35;24.00;93.00
13464;DHT22;6804;48.774;9.174;2022-09-09T13:14:06;24.00;92.80
13464;DHT22;6804;48.774;9.174;2022-09-09T13:16:36;24.00;93.00
13464;DHT22;6804;48.774;9.174;2022-09-09T13:19:08;24.00;92.80
13464;DHT22;6804;48.774;9.174;2022-09-09T13:21:42;24.00;92.70
13464;DHT22;6804;48.774;9.174;2022-09-09T13:24:29;24.00;92.70
13464;DHT22;6804;48.774;9.174;2022-09-09T13:27:03;23.80;93.30
13464;DHT22;6804;48.774;9.174;2022-09-09T13:29:35;24.00;93.40
13464;DHT22;6804;48.774;9.174;2022-09-09T13:32:15;24.10;93.10
13464;DHT22;6804;48.774;9.174;2022-09-09T13:34:52;24.20;93.00
13464;DHT22;6804;48.774;9.174;2022-09-09T13:37:28;24.20;93.00
13464;DHT22;6804;48.774;9.174;2022-09-09T13:40:04;24.20;93.10
13464;DHT22;6804;48.774;9.174;2022-09-09T13:42:39;24.40;92.30
13464;DHT22;6804;48.774;9.174;2022-09-09T13:45:18;24.50;91.50
13464;DHT22;6804;48.774;9.174;2022-09-09T13:47:48;24.60;91.20
13464;DHT22;6804;48.774;9.174;2022-09-09T13:50:19;24.50;90.40
13464;DHT22;6804;48.774;9.174;2022-09-09T13:52:52;24.30;90.40
13464;DHT22;6804;48.774;9.174;2022-09-09T13:55:29;24.30;90.90
13464;DHT22;6804;48.774;9.174;2022-09-09T13:58:02;24.40;91.00
13464;DHT22;6804;48.774;9.174;2022-09-09T14:00:33;24.40;91.10
13464;DHT22;6804;48.774;9.174;2022-09-09T14:03:07;24.50;91.60
13464;DHT22;6804;48.774;9.174;2022-09-09T14:05:40;24.50;90.90
13464;DHT22;6804;48.774;9.174;2022-09-09T14:08:20;24.50;90.50
13464;DHT22;6804;48.774;9.174;2022-09-09T14:10:51;24.40;90.60
13464;DHT22;6804;48.774;9.174;2022-09-09T14:13:23;24.30;90.70
13464;DHT22;6804;48.774;9.174;2022-09-09T14:16:00;24.30;90.50
13464;DHT22;6804;48.774;9.174;2022-09-09T14:18:28;24.30;90.50
13464;DHT22;6804;48.774;9.174;2022-09-09T14:20:57;24.30;90.30
13464;DHT22;6804;48.774;9.174;2022-09-09T14:23:29;24.40;90.30
13464;DHT22;6804;48.774;9.174;2022-09-09T14:26:00;24.50;90.10
13464;DHT22;6804;48.774;9.174;2022-09-09T14:28:31;24.50;89.00
13464;DHT22;6804;48.774;9.174;2022-09-09T14:31:00;24.30;88.50
13464;DHT22;6804;48.774;9.174;2022-09-09T14:33:31;24.20;89.50
13464;DHT22;6804;48.774;9.174;2022-09-09T14:36:02;24.10;90.10
13464;DHT22;6804;48.774;9.174;2022-09-09T14:38:31;24.10;90.30
13464;DHT22;6804;48.774;9.174;2022-09-09T14:41:07;24.10;89.80
13464;DHT22;6804;48.774;9.174;2022-09-09T14:43:37;24.00;89.80
13464;DHT22;6804;48.774;9.174;2022-09-09T14:46:10;24.00;89.70
13464;DHT22;6804;48.774;9.174;2022-09-09T14:48:39;24.00;89.70
13464;DHT22;6804;48.774;9.174;2022-09-09T14:51:13;24.10;89.90
13464;DHT22;6804;48.774;9.174;2022-09-09T14:53:44;24.20;89.50
13464;DHT22;6804;48.774;9.174;2022-09-09T14:56:21;24.30;88.90
13464;DHT22;6804;48.774;9.174;2022-09-09T14:58:53;24.40;87.80
13464;DHT22;6804;48.774;9.174;2022-09-09T15:01:30;24.30;87.20
13464;DHT22;6804;48.774;9.174;2022-09-09T15:04:01;24.20;86.90
13464;DHT22;6804;48.774;9.174;2022-09-09T15:06:33;24.20;86.60
13464;DHT22;6804;48.774;9.174;2022-09-09T15:09:05;24.20;86.20
13464;DHT22;6804;48.774;9.174;2022-09-09T15:11:38;24.10;86.30
13464;DHT22;6804;48.774;9.174;2022-09-09T15:14:07;24.00;86.90
13464;DHT22;6804;48.774;9.174;2022-09-09T15:16:36;23.90;86.70
13464;DHT22;6804;48.774;9.174;2022-09-09T15:19:05;23.80;86.70
13464;DHT22;6804;48.774;9.174;2022-09-09T15:21:38;23.70;87.30
13464;DHT22;6804;48.774;9.174;2022-09-09T15:24:06;23.60;87.60
13464;DHT22;6804;48.774;9.174;2022-09-09T15:26:39;23.50;87.60
13464;DHT22;6804;48.774;9.174;2022-09-09T15:29:09;23.40;87.90
13464;DHT22;6804;48.774;9.174;2022-09-09T15:31:39;23.20;88.30
13464;DHT22;6804;48.774;9.174;2022-09-09T15:34:07;23.20;88.80
13464;DHT22;6804;48.774;9.174;2022-09-09T15:36:39;23.20;89.00
13464;DHT22;6804;48.774;9.174;2022-09-09T15:39:09;23.10;89.40
13464;DHT22;6804;48.774;9.174;2022-09-09T15:41:43;23.10;89.50
13464;DHT22;6804;48.774;9.174;2022-09-09T15:44:11;23.10;89.80
13464;DHT22;6804;48.774;9.174;2022-09-09T15:46:39;23.10;90.00
13464;DHT22;6804;48.774;9.174;2022-09-09T15:49:10;23.10;90.20
13464;DHT22;6804;48.774;9.174;2022-09-09T15:51:45;23.10;90.40
13464;DHT22;6804;48.774;9.174;2022-09-09T15:54:15;23.00;90.20
13464;DHT22;6804;48.774;9.174;2022-09-09T15:56:46;22.90;90.10
13464;DHT22;6804;48.774;9.174;2022-09-09T15:59:23;22.90;90.30
13464;DHT22;6804;48.774;9.174;2022-09-09T16:01:53;22.80;90.30
13464;DHT22;6804;48.774;9.174;2022-09-09T16:04:22;22.80;89.90
13464;DHT22;6804;48.774;9.174;2022-09-09T16:06:54;22.70;90.00
13464;DHT22;6804;48.774;9.174;2022-09-09T16:09:23;22.70;90.00
13464;DHT22;6804;48.774;9.174;2022-09-09T16:11:54;22.60;89.60
13464;DHT22;6804;48.774;9.174;2022-09-09T16:14:26;22.60;89.70
13464;DHT22;6804;48.774;9.174;2022-09-09T16:16:54;22.50;89.60
13464;DHT22;6804;48.774;9.174;2022-09-09T16:19:22;22.50;89.90
13464;DHT22;6804;48.774;9.174;2022-09-09T16:21:52;22.50;90.00
13464;DHT22;6804;48.774;9.174;2022-09-09T16:24:20;22.50;90.10
13464;DHT22;6804;48.774;9.174;2022-09-09T16:26:53;22.40;90.20
13464;DHT22;6804;48.774;9.174;2022-09-09T16:29:21;22.40;90.30
13464;DHT22;6804;48.774;9.174;2022-09-09T16:31:52;22.30;90.50